Time;durP1;ratioP1;P1;durP2;ratioP2;P2;SDS_P1;SDS_P2;PMS_P1;PMS_P2;Temp;Humidity;BMP_temperature;BMP_pressure;BME280_temperature;BME280_humidity;BME280_pressure;Samples;Min_cycle;Max_cycle;Signal;HPM_P1;HPM_P2
2022/10/19 00:09:53;;;;;;;9.17;5.17;;;;;;;12.45;57.94;100704.44;31945738;27;20115;-82
2022/10/19 00:24:56;;;;;;;11.10;4.33;;;;;;;12.44;58.49;100688.50;31823657;27;20039;-78
2022/10/19 00:39:58;;;;;;;9.73;5.07;;;;;;;12.25;59.42;100660.06;31837174;27;20107;-78
2022/10/19 00:55:01;;;;;;;7.97;4.57;;;;;;;12.18;60.28;100630.25;31845946;27;20050;-78
2022/10/19 01:10:04;;;;;;;10.97;4.97;;;;;;;12.13;64.25;100625.28;31806875;27;20097;-78
2022/10/19 01:25:28;;;;;;;10.03;4.97;;;;;;;12.23;66.90;100597.13;31813343;27;20043;-77
2022/10/19 01:40:52;;;;;;;11.50;5.10;;;;;;;12.23;65.74;100565.22;31834414;27;20055;-77
2022/10/19 01:55:55;;;;;;;9.00;5.33;;;;;;;12.17;66.69;100549.78;31825859;27;20055;-83
2022/10/19 02:10:58;;;;;;;12.13;5.07;;;;;;;12.14;68.73;100558.78;31831837;27;20055;-83
2022/10/19 02:26:00;;;;;;;11.60;6.00;;;;;;;11.97;67.93;100554.44;31858691;27;20047;-77
2022/10/19 02:41:17;;;;;;;9.33;5.40;;;;;;;11.79;69.91;100536.50;31836868;27;20652;-83
2022/10/19 02:56:19;;;;;;;6.53;4.50;;;;;;;11.77;70.38;100527.22;31827048;27;20047;-78
2022/10/19 03:11:21;;;;;;;7.97;5.00;;;;;;;11.82;73.01;100524.75;31811127;27;20104;-82
2022/10/19 03:26:23;;;;;;;11.10;5.97;;;;;;;12.01;72.67;100500.72;31819624;27;20043;-82
2022/10/19 03:41:27;;;;;;;11.00;5.80;;;;;;;11.87;73.23;100474.56;31805840;28;20051;-84
2022/10/19 03:56:30;;;;;;;13.03;6.27;;;;;;;11.68;74.49;100454.28;31829703;27;20084;-83
2022/10/19 04:11:33;;;;;;;17.03;7.20;;;;;;;11.60;73.71;100428.41;31845191;27;20096;-78
2022/10/19 04:26:41;;;;;;;14.90;6.73;;;;;;;11.67;74.24;100420.13;31856080;27;20051;-84
2022/10/19 04:41:43;;;;;;;12.90;6.47;;;;;;;11.71;73.49;100415.38;31861480;27;20059;-77
2022/10/19 04:56:45;;;;;;;13.40;6.77;;;;;;;12.58;69.83;100392.16;31848014;27;20051;-83
2022/10/19 05:11:50;;;;;;;8.47;5.20;;;;;;;13.82;65.41;100385.50;31814670;27;20105;-77
2022/10/19 05:26:52;;;;;;;12.00;5.70;;;;;;;15.12;60.35;100359.97;31855725;27;20100;-83
2022/10/19 05:41:54;;;;;;;11.10;4.03;;;;;;;16.49;55.55;100349.84;31834728;27;20103;-84
2022/10/19 05:56:56;;;;;;;9.23;4.53;;;;;;;18.67;49.34;100339.78;31805518;27;20057;-84
2022/10/19 06:11:58;;;;;;;14.90;3.97;;;;;;;19.30;46.86;100299.25;31832743;27;20059;-84
2022/10/19 06:27:00;;;;;;;6.30;3.37;;;;;;;19.46;47.36;100280.75;31849929;27;20078;-83
2022/10/19 06:42:02;;;;;;;7.65;3.50;;;;;;;20.93;44.96;100266.56;31832525;27;20506;-78
2022/10/19 06:57:04;;;;;;;4.85;2.88;;;;;;;22.03;42.45;100254.22;31822764;27;20080;-77
2022/10/19 07:12:09;;;;;;;4.68;3.17;;;;;;;22.92;40.77;100238.00;31840120;27;20059;-83
2022/10/19 07:27:12;;;;;;;4.22;2.63;;;;;;;24.03;38.68;100220.63;31827541;27;20088;-83
2022/10/19 07:42:14;;;;;;;6.73;2.57;;;;;;;24.94;35.15;100210.63;31860284;27;20481;-78
2022/10/19 07:57:16;;;;;;;6.07;2.95;;;;;;;25.58;33.95;100184.13;31860260;27;20055;-76
2022/10/19 08:12:18;;;;;;;6.60;3.33;;;;;;;26.11;32.23;100157.53;31829660;27;20059;-83
2022/10/19 08:27:20;;;;;;;3.30;1.73;;;;;;;26.30;30.53;100140.09;31853712;27;20103;-82
2022/10/19 08:42:31;;;;;;;5.33;1.97;;;;;;;26.36;28.67;100124.09;31842763;27;20077;-83
2022/10/19 08:57:39;;;;;;;6.68;1.90;;;;;;;26.60;29.36;100087.81;31837405;27;20119;-83
2022/10/19 09:12:49;;;;;;;5.90;1.63;;;;;;;27.10;28.05;100066.75;31853137;27;20063;-83
2022/10/19 09:28:10;;;;;;;3.58;1.23;;;;;;;27.39;26.18;100028.72;31834003;27;20047;-82
2022/10/19 09:43:21;;;;;;;4.47;1.20;;;;;;;27.05;26.47;99997.94;31823795;27;20047;-77
2022/10/19 09:58:26;;;;;;;3.55;1.38;;;;;;;26.43;26.72;99992.69;31859595;27;20055;-77
2022/10/19 10:13:42;;;;;;;2.45;1.33;;;;;;;26.65;25.89;99956.13;31822576;27;20124;-78
2022/10/19 10:28:49;;;;;;;1.42;1.08;;;;;;;27.12;25.74;99961.09;31832007;27;20478;-77
2022/10/19 10:44:01;;;;;;;2.90;1.27;;;;;;;27.36;24.66;99935.78;31783936;27;20100;-78
2022/10/19 10:59:14;;;;;;;5.22;1.50;;;;;;;27.31;24.96;99928.28;31814718;27;20138;-77
2022/10/19 11:14:41;;;;;;;7.13;1.42;;;;;;;27.32;25.37;99901.91;31827204;28;20116;-78
2022/10/19 11:30:09;;;;;;;7.38;1.48;;;;;;;27.73;24.85;99864.25;31856008;27;20047;-82
2022/10/19 11:45:46;;;;;;;3.78;1.60;;;;;;;28.47;24.84;99853.53;31803903;27;20052;-79
2022/10/19 12:01:11;;;;;;;5.75;1.73;;;;;;;28.62;25.44;99850.81;31806150;27;20059;-82
2022/10/19 12:16:16;;;;;;;6.80;2.13;;;;;;;24.51;30.76;99842.13;31836885;27;20059;-83
2022/10/19 12:31:18;;;;;;;4.18;1.60;;;;;;;22.67;33.71;99813.63;31851759;27;20059;-77
2022/10/19 12:46:48;;;;;;;9.90;3.00;;;;;;;22.13;36.94;99798.66;31828635;27;20096;-78
2022/10/19 13:01:55;;;;;;;8.00;2.70;;;;;;;21.63;38.23;99775.31;31817777;27;20066;-78
2022/10/19 13:17:02;;;;;;;9.30;2.97;;;;;;;21.46;38.35;99771.81;31846117;27;20057;-78
2022/10/19 13:32:39;;;;;;;6.70;2.20;;;;;;;21.38;39.41;99737.66;31824341;27;20094;-83
2022/10/19 13:47:47;;;;;;;11.25;3.63;;;;;;;21.01;39.55;99721.28;31837944;27;20108;-78
2022/10/19 14:03:37;;;;;;;6.32;2.90;;;;;;;20.97;40.79;99710.47;31809880;27;20081;-77
2022/10/19 14:18:40;;;;;;;44.40;23.63;;;;;;;20.63;41.07;99697.84;31822688;27;20492;-77
2022/10/19 14:33:46;;;;;;;7.60;3.23;;;;;;;20.31;41.81;99675.16;31837140;27;20047;-78
2022/10/19 14:48:49;;;;;;;6.90;3.40;;;;;;;19.98;43.16;99668.25;31813295;27;20039;-77
2022/10/19 15:03:52;;;;;;;8.45;4.20;;;;;;;19.84;43.30;99663.66;31819936;27;20108;-78
2022/10/19 15:18:54;;;;;;;10.05;4.28;;;;;;;19.63;44.68;99665.03;31803543;27;20066;-83
2022/10/19 15:33:59;;;;;;;10.88;4.80;;;;;;;19.52;45.63;99659.47;31853796;27;20057;-84
2022/10/19 15:49:23;;;;;;;9.98;4.75;;;;;;;19.42;46.99;99659.59;31868301;27;20111;-82
2022/10/19 16:04:25;;;;;;;12.60;5.93;;;;;;;19.34;45.87;99666.81;31777243;27;20059;-83
2022/10/19 16:19:27;;;;;;;11.60;5.85;;;;;;;19.19;46.02;99652.41;31813544;27;20054;-84
2022/10/19 16:34:29;;;;;;;23.67;13.00;;;;;;;18.99;47.09;99664.25;31849310;27;20044;-83
2022/10/19 16:49:31;;;;;;;26.50;11.70;;;;;;;18.28;49.20;99673.97;31839185;27;20458;-83
2022/10/19 17:04:33;;;;;;;24.65;12.15;;;;;;;17.72;53.00;99672.47;31836991;27;20051;-83
2022/10/19 17:19:36;;;;;;;26.43;12.00;;;;;;;17.39;54.10;99673.47;31851795;27;20476;-83
2022/10/19 17:34:38;;;;;;;21.23;12.60;;;;;;;16.89;57.96;99669.13;31828022;27;20073;-83
2022/10/19 17:49:40;;;;;;;28.50;13.43;;;;;;;16.50;62.14;99674.59;31836127;27;20047;-84
2022/10/19 18:04:41;;;;;;;26.90;14.70;;;;;;;16.28;64.93;99693.34;31832406;27;20051;-84
2022/10/19 18:49:55;;;;;;;9.70;5.93;;;;;;;16.17;67.07;99709.53;31529002;28;20135;-74
2022/10/19 19:04:57;;;;;;;11.77;5.53;;;;;;;15.73;74.80;99714.78;31517103;28;20060;-74
2022/10/19 19:19:59;;;;;;;7.80;5.53;;;;;;;15.40;77.48;99714.69;31519840;28;20056;-75
2022/10/19 19:35:01;;;;;;;10.10;5.93;;;;;;;15.16;81.21;99723.56;31528151;28;20053;-75
2022/10/19 19:50:03;;;;;;;11.97;6.00;;;;;;;15.06;82.13;99719.34;31425119;28;20057;-74
2022/10/19 20:05:05;;;;;;;9.77;5.60;;;;;;;15.00;82.78;99715.69;31442123;28;20155;-76
2022/10/19 20:20:09;;;;;;;11.03;6.40;;;;;;;14.97;83.32;99727.53;31441948;28;20110;-74
2022/10/19 20:35:11;;;;;;;11.27;6.33;;;;;;;14.95;83.58;99703.38;31454488;28;20063;-73
2022/10/19 20:50:13;;;;;;;13.47;7.57;;;;;;;14.93;83.32;99705.06;31451121;28;20049;-74
2022/10/19 21:05:18;;;;;;;12.93;7.67;;;;;;;14.97;83.08;99689.28;31439757;28;20048;-72
2022/10/19 21:20:23;;;;;;;22.07;10.93;;;;;;;14.97;83.73;99694.72;31438742;28;20312;-74
2022/10/19 21:35:25;;;;;;;17.17;9.20;;;;;;;14.98;82.48;99669.69;31447239;28;20517;-75
2022/10/19 21:50:27;;;;;;;15.60;8.87;;;;;;;14.97;83.06;99678.34;31443286;28;20421;-75
2022/10/19 22:05:28;;;;;;;22.03;10.93;;;;;;;15.04;82.08;99669.81;31422746;28;20059;-74
2022/10/19 22:20:32;;;;;;;21.70;9.87;;;;;;;14.84;82.36;99669.56;31429802;28;20044;-74
2022/10/19 22:35:34;;;;;;;14.77;8.80;;;;;;;14.75;82.60;99683.22;31442042;28;20421;-75
2022/10/19 22:51:13;;;;;;;15.17;8.30;;;;;;;14.65;82.59;99690.66;31439025;28;20055;-76
2022/10/19 23:06:17;;;;;;;18.73;9.37;;;;;;;14.65;82.92;99696.88;31475758;28;20059;-74
2022/10/19 23:21:19;;;;;;;19.87;9.13;;;;;;;14.61;81.77;99677.16;31435800;28;20049;-74
2022/10/19 23:36:24;;;;;;;17.33;9.30;;;;;;;14.52;81.43;99655.31;31453778;28;20056;-73
2022/10/19 23:51:26;;;;;;;16.47;8.87;;;;;;;14.37;80.81;99651.66;31452653;28;20056;-73
